Time;durP1;ratioP1;P1;durP2;ratioP2;P2;SDS_P1;SDS_P2;PMS_P1;PMS_P2;Temp;Humidity;BMP_temperature;BMP_pressure;BME280_temperature;BME280_humidity;BME280_pressure;Samples;Min_cycle;Max_cycle;Signal;HPM_P1;HPM_P2
2022/11/30 00:00:28;;;;;;;40.60;25.63;;;7.20;99.90;;;;;;4997057;28;20692;-65
2022/11/30 00:02:58;;;;;;;40.83;26.33;;;7.20;99.90;;;;;;5004492;28;20680;-65
2022/11/30 00:05:23;;;;;;;37.70;26.70;;;7.20;99.90;;;;;;4988305;28;20195;-66
2022/11/30 00:07:49;;;;;;;45.40;27.77;;;7.20;99.90;;;;;;5005927;28;20429;-66
2022/11/30 00:10:15;;;;;;;36.67;26.23;;;7.10;99.90;;;;;;4997361;28;20222;-65
2022/11/30 00:12:41;;;;;;;37.47;25.50;;;7.20;99.90;;;;;;5002619;28;20187;-66
2022/11/30 00:15:11;;;;;;;37.03;25.37;;;7.20;99.90;;;;;;4990207;28;20172;-65
2022/11/30 00:17:36;;;;;;;38.23;25.60;;;7.20;99.90;;;;;;5005863;28;20203;-66
2022/11/30 00:20:02;;;;;;;37.73;26.40;;;7.20;99.90;;;;;;4992134;28;20441;-65
2022/11/30 00:22:28;;;;;;;37.10;26.87;;;7.20;99.90;;;;;;5004180;28;20573;-66
2022/11/30 00:24:53;;;;;;;39.67;26.27;;;7.30;99.90;;;;;;4992799;28;20500;-66
2022/11/30 00:27:19;;;;;;;36.83;26.70;;;7.30;99.90;;;;;;4992948;28;20274;-66
2022/11/30 00:29:44;;;;;;;37.77;26.37;;;7.30;99.90;;;;;;5001954;28;20200;-66
2022/11/30 00:32:10;;;;;;;34.67;25.80;;;7.20;99.90;;;;;;5005814;28;20187;-66
2022/11/30 00:34:35;;;;;;;39.03;27.30;;;7.20;99.90;;;;;;4993503;28;20207;-65
2022/11/30 00:37:01;;;;;;;38.50;25.87;;;7.20;99.90;;;;;;5001998;28;20619;-66
2022/11/30 00:39:26;;;;;;;38.37;26.80;;;7.20;99.90;;;;;;4994094;28;20203;-66
2022/11/30 00:41:52;;;;;;;41.40;26.63;;;7.20;99.90;;;;;;4996489;28;20179;-66
2022/11/30 00:44:17;;;;;;;40.40;27.13;;;7.20;99.90;;;;;;5000158;28;20596;-66
2022/11/30 00:46:43;;;;;;;37.30;26.47;;;7.20;99.90;;;;;;5000804;28;20660;-64
2022/11/30 00:49:08;;;;;;;45.47;27.17;;;7.30;99.90;;;;;;4995144;28;20198;-65
2022/11/30 00:51:34;;;;;;;39.83;27.83;;;7.20;99.90;;;;;;4994052;28;20621;-66
2022/11/30 00:53:59;;;;;;;38.90;26.50;;;7.30;99.90;;;;;;4996268;28;20572;-65
2022/11/30 00:56:25;;;;;;;40.10;26.50;;;7.30;99.90;;;;;;4999518;28;20191;-65
2022/11/30 00:58:50;;;;;;;38.03;26.77;;;7.30;99.90;;;;;;5000606;28;20206;-64
2022/11/30 01:01:16;;;;;;;39.57;27.77;;;7.30;99.90;;;;;;5001713;28;20249;-65
2022/11/30 01:03:41;;;;;;;36.53;26.97;;;7.30;99.90;;;;;;4995304;28;20534;-66
2022/11/30 01:06:08;;;;;;;42.27;26.90;;;7.20;99.90;;;;;;5002025;28;20572;-66
2022/11/30 01:08:34;;;;;;;39.17;25.43;;;7.20;99.90;;;;;;4999188;28;20186;-66
2022/11/30 01:11:15;;;;;;;39.80;25.20;;;7.20;99.90;;;;;;5002532;28;20435;-66
2022/11/30 01:13:41;;;;;;;40.93;26.53;;;7.20;99.90;;;;;;4995155;28;20477;-66
2022/11/30 01:16:12;;;;;;;38.50;26.43;;;7.20;99.90;;;;;;4997494;28;20439;-66
2022/11/30 01:18:38;;;;;;;44.03;28.37;;;7.20;99.90;;;;;;4999668;28;20195;-66
2022/11/30 01:21:08;;;;;;;36.03;25.57;;;7.20;99.90;;;;;;5001561;28;20438;-66
2022/11/30 01:23:34;;;;;;;37.37;28.00;;;7.20;99.90;;;;;;4993681;28;20202;-66
2022/11/30 01:25:59;;;;;;;43.10;25.63;;;7.20;99.90;;;;;;5002990;28;20513;-66
2022/11/30 01:28:25;;;;;;;33.83;24.80;;;7.20;99.90;;;;;;4991988;28;20194;-65
2022/11/30 01:31:05;;;;;;;37.30;26.17;;;7.10;99.90;;;;;;4992170;28;20183;-66
2022/11/30 01:33:31;;;;;;;34.30;24.40;;;7.10;99.90;;;;;;4992311;28;20211;-66
2022/11/30 01:35:58;;;;;;;36.07;22.77;;;7.10;99.90;;;;;;5002185;28;20438;-66
2022/11/30 01:38:24;;;;;;;39.07;26.43;;;7.10;99.90;;;;;;4991564;28;20824;-66
2022/11/30 01:40:50;;;;;;;36.40;25.80;;;7.10;99.90;;;;;;4993264;28;20430;-66
2022/11/30 01:43:17;;;;;;;34.63;24.17;;;7.10;99.90;;;;;;4991796;28;20195;-66
2022/11/30 01:45:43;;;;;;;34.27;23.80;;;7.00;99.90;;;;;;4996908;28;20434;-66
2022/11/30 01:48:09;;;;;;;39.10;24.10;;;7.00;99.90;;;;;;4997299;28;20513;-65
2022/11/30 01:50:35;;;;;;;31.53;22.30;;;7.00;99.90;;;;;;5000046;28;20270;-66
2022/11/30 01:53:04;;;;;;;35.87;26.00;;;7.10;99.90;;;;;;4998754;28;20206;-65
2022/11/30 01:55:50;;;;;;;34.30;24.77;;;7.00;99.90;;;;;;5004536;28;20942;-66
2022/11/30 01:58:21;;;;;;;33.97;23.60;;;7.00;99.90;;;;;;4990311;28;20829;-66
2022/11/30 02:00:47;;;;;;;34.70;23.90;;;7.00;99.90;;;;;;4999054;28;20437;-66
2022/11/30 02:03:21;;;;;;;34.60;24.83;;;7.00;99.90;;;;;;4990860;28;20828;-66
2022/11/30 02:05:48;;;;;;;28.93;21.10;;;7.00;99.90;;;;;;4993072;28;20179;-66
2022/11/30 02:08:13;;;;;;;32.50;23.17;;;7.00;99.90;;;;;;4992461;28;20445;-66
2022/11/30 02:10:42;;;;;;;35.03;23.33;;;7.00;99.90;;;;;;4991006;28;20439;-66
2022/11/30 02:13:25;;;;;;;33.40;24.47;;;7.00;99.90;;;;;;4992563;28;20241;-66
2022/11/30 02:16:01;;;;;;;32.80;23.20;;;7.00;99.90;;;;;;4992519;28;20438;-67
2022/11/30 02:18:42;;;;;;;34.00;23.77;;;7.00;99.90;;;;;;4986727;28;20462;-65
2022/11/30 02:21:32;;;;;;;29.60;22.90;;;7.00;99.90;;;;;;4985550;28;20438;-66
2022/11/30 02:24:07;;;;;;;30.63;21.17;;;7.00;99.90;;;;;;4994613;28;20520;-66
2022/11/30 02:27:01;;;;;;;31.50;22.10;;;7.00;99.90;;;;;;4990944;28;20438;-66
2022/11/30 02:30:07;;;;;;;33.33;22.67;;;7.10;99.90;;;;;;4994940;28;20438;-66
2022/11/30 02:32:47;;;;;;;30.47;21.93;;;7.00;99.90;;;;;;4984818;28;20450;-67
2022/11/30 02:35:18;;;;;;;35.40;23.50;;;7.10;99.90;;;;;;4995657;28;20554;-66
2022/11/30 02:37:44;;;;;;;31.93;20.90;;;7.10;99.90;;;;;;4992396;28;20466;-67
2022/11/30 02:40:14;;;;;;;31.83;21.90;;;7.00;99.90;;;;;;4991048;28;20430;-67
2022/11/30 02:42:39;;;;;;;31.83;22.70;;;7.10;99.90;;;;;;4987280;28;20522;-66
2022/11/30 02:45:06;;;;;;;29.80;22.73;;;7.10;99.90;;;;;;4990551;28;20876;-66
2022/11/30 02:47:55;;;;;;;28.80;21.80;;;7.20;99.90;;;;;;4992072;28;20207;-66
2022/11/30 02:50:28;;;;;;;24.00;18.40;;;7.20;99.90;;;;;;4990478;28;20525;-66
2022/11/30 02:52:55;;;;;;;32.13;21.67;;;7.20;99.90;;;;;;4991149;28;20512;-66
2022/11/30 02:55:20;;;;;;;33.03;19.83;;;7.20;99.90;;;;;;4996085;28;20500;-65
2022/11/30 02:57:46;;;;;;;28.73;21.10;;;7.30;99.90;;;;;;4994052;28;20466;-66
2022/11/30 03:00:13;;;;;;;32.90;21.43;;;7.20;99.90;;;;;;4990132;28;20708;-67
2022/11/30 03:02:39;;;;;;;25.50;20.60;;;7.20;99.90;;;;;;4990914;28;20183;-66
2022/11/30 03:05:06;;;;;;;28.33;20.10;;;7.20;99.90;;;;;;4992019;28;20448;-66
2022/11/30 03:07:32;;;;;;;28.27;20.43;;;7.20;99.90;;;;;;4991984;28;20443;-65
2022/11/30 03:09:58;;;;;;;28.00;19.73;;;7.20;99.90;;;;;;4990838;28;20500;-66
2022/11/30 03:12:24;;;;;;;32.10;21.00;;;7.20;99.90;;;;;;4991763;28;20442;-66
2022/11/30 03:14:50;;;;;;;27.83;19.53;;;7.10;99.90;;;;;;4991460;28;20473;-66
2022/11/30 03:17:15;;;;;;;26.37;19.43;;;7.10;99.90;;;;;;5003645;28;20782;-66
2022/11/30 03:19:41;;;;;;;26.40;19.37;;;7.10;99.90;;;;;;4993364;28;20202;-65
2022/11/30 03:22:06;;;;;;;25.17;18.07;;;7.10;99.90;;;;;;4991579;28;20187;-66
2022/11/30 03:24:32;;;;;;;22.17;18.03;;;7.10;99.90;;;;;;4990836;28;20203;-66
2022/11/30 03:26:58;;;;;;;27.50;20.70;;;7.10;99.90;;;;;;4991621;28;20175;-66
2022/11/30 03:29:24;;;;;;;26.80;19.13;;;7.20;99.90;;;;;;4996684;28;20181;-66
2022/11/30 03:31:49;;;;;;;24.27;19.30;;;7.20;99.90;;;;;;4992280;28;20903;-66
2022/11/30 03:34:15;;;;;;;27.30;19.37;;;7.20;99.90;;;;;;4990621;28;20607;-66
2022/11/30 03:36:41;;;;;;;25.73;18.80;;;7.20;99.90;;;;;;4990635;28;20187;-66
2022/11/30 03:39:06;;;;;;;29.33;20.23;;;7.00;99.90;;;;;;4991152;28;20203;-66
2022/11/30 03:41:32;;;;;;;26.00;18.90;;;7.00;99.90;;;;;;4990725;28;20234;-66
2022/11/30 03:43:57;;;;;;;27.00;19.00;;;7.00;99.90;;;;;;4990679;28;20218;-66
2022/11/30 03:46:24;;;;;;;25.10;18.50;;;7.10;99.90;;;;;;4991007;28;20180;-66
2022/11/30 03:48:50;;;;;;;28.40;20.30;;;7.10;99.90;;;;;;4990491;28;20184;-66
2022/11/30 03:51:15;;;;;;;24.27;18.60;;;7.10;99.90;;;;;;4992274;28;20425;-65
2022/11/30 03:53:41;;;;;;;28.27;19.17;;;7.10;99.90;;;;;;4991354;28;20230;-65
2022/11/30 03:56:09;;;;;;;26.20;19.30;;;7.20;99.90;;;;;;4991563;28;20255;-66
2022/11/30 03:58:35;;;;;;;29.33;20.90;;;7.10;99.90;;;;;;4991995;28;20256;-66
2022/11/30 04:01:08;;;;;;;27.07;19.33;;;7.10;99.90;;;;;;4994916;28;20434;-66
2022/11/30 04:03:34;;;;;;;26.50;18.33;;;7.00;99.90;;;;;;4994016;28;20458;-66
2022/11/30 04:06:01;;;;;;;22.60;17.43;;;7.10;99.90;;;;;;4992142;28;20445;-65
2022/11/30 04:08:27;;;;;;;24.90;18.40;;;7.10;99.90;;;;;;4992091;28;20445;-66
2022/11/30 04:10:55;;;;;;;25.77;19.47;;;7.10;99.90;;;;;;4994881;28;20573;-66
2022/11/30 04:13:21;;;;;;;24.97;18.63;;;7.10;99.90;;;;;;4993823;28;20484;-66
2022/11/30 04:15:48;;;;;;;21.43;17.30;;;7.20;99.90;;;;;;4992713;28;20465;-66
2022/11/30 04:18:14;;;;;;;19.37;15.07;;;7.20;99.90;;;;;;4993146;28;20466;-65
2022/11/30 04:20:40;;;;;;;21.97;16.00;;;7.10;99.90;;;;;;4995220;28;20433;-66
2022/11/30 04:23:07;;;;;;;17.50;14.07;;;7.10;99.90;;;;;;4993819;28;20457;-66
2022/11/30 04:25:33;;;;;;;21.60;15.57;;;7.10;99.90;;;;;;4994659;28;20463;-66
2022/11/30 04:27:58;;;;;;;16.40;14.03;;;7.10;99.90;;;;;;4994513;28;20523;-66
2022/11/30 04:30:24;;;;;;;19.47;15.30;;;7.10;99.90;;;;;;4994221;28;20660;-65
2022/11/30 04:32:50;;;;;;;18.97;15.07;;;7.10;99.90;;;;;;4994691;28;20211;-66
2022/11/30 04:35:15;;;;;;;18.40;14.20;;;7.10;99.90;;;;;;4993634;28;20187;-65
2022/11/30 04:37:41;;;;;;;18.40;15.00;;;7.10;99.90;;;;;;4993084;28;20664;-66
2022/11/30 04:40:07;;;;;;;19.10;14.20;;;7.00;99.90;;;;;;4992315;28;20641;-65
2022/11/30 04:42:32;;;;;;;18.53;16.63;;;7.00;99.90;;;;;;4990496;28;20187;-65
2022/11/30 04:44:58;;;;;;;17.03;13.77;;;7.00;99.90;;;;;;4993923;28;21005;-66
2022/11/30 04:47:23;;;;;;;17.77;13.67;;;7.10;99.90;;;;;;4993301;28;20266;-66
2022/11/30 04:49:49;;;;;;;16.47;13.30;;;7.20;99.90;;;;;;4993299;28;20672;-66
2022/11/30 04:52:15;;;;;;;19.07;14.23;;;7.20;99.90;;;;;;4994063;28;20536;-65
2022/11/30 04:54:40;;;;;;;19.40;13.90;;;7.10;99.90;;;;;;4993301;28;20703;-66
2022/11/30 04:57:06;;;;;;;16.77;14.23;;;7.20;99.90;;;;;;5003779;28;20578;-66
2022/11/30 04:59:31;;;;;;;19.00;15.03;;;7.10;99.90;;;;;;4996609;28;20207;-65
2022/11/30 05:01:57;;;;;;;18.43;13.60;;;7.10;99.90;;;;;;5008960;28;20187;-66
2022/11/30 05:04:22;;;;;;;18.10;14.47;;;7.10;99.90;;;;;;4992374;28;20249;-66
2022/11/30 05:06:48;;;;;;;16.00;13.63;;;7.10;99.90;;;;;;4993468;28;20572;-66
2022/11/30 05:09:14;;;;;;;17.50;14.07;;;7.10;99.90;;;;;;4993295;28;20187;-66
2022/11/30 05:11:39;;;;;;;19.30;14.13;;;7.20;99.90;;;;;;5000387;28;20187;-65
2022/11/30 05:14:05;;;;;;;19.97;15.00;;;7.20;99.90;;;;;;4993310;28;20309;-66
2022/11/30 05:16:30;;;;;;;21.77;14.90;;;7.10;99.90;;;;;;4993854;28;20187;-66
2022/11/30 05:18:56;;;;;;;17.03;14.37;;;7.10;99.90;;;;;;4992815;28;20208;-66
2022/11/30 05:21:21;;;;;;;20.70;15.07;;;7.10;99.90;;;;;;4993714;28;20211;-66
2022/11/30 05:23:47;;;;;;;20.20;13.80;;;7.00;99.90;;;;;;4992964;28;20284;-65
2022/11/30 05:26:13;;;;;;;21.03;15.70;;;6.90;99.90;;;;;;4992777;28;20210;-66
2022/11/30 05:28:39;;;;;;;20.27;16.00;;;6.90;99.90;;;;;;4990574;28;20944;-66
2022/11/30 05:31:05;;;;;;;20.70;16.50;;;6.80;99.90;;;;;;5004050;28;20445;-66
2022/11/30 05:33:32;;;;;;;20.40;15.10;;;6.80;99.90;;;;;;5004136;28;20216;-66
2022/11/30 05:35:57;;;;;;;22.53;16.10;;;6.90;99.90;;;;;;4999635;28;20504;-66
2022/11/30 05:38:23;;;;;;;23.30;15.90;;;6.90;99.90;;;;;;5000342;28;20454;-66
2022/11/30 05:40:48;;;;;;;22.80;16.77;;;6.90;99.90;;;;;;4996892;28;20164;-65
2022/11/30 05:43:14;;;;;;;23.90;17.33;;;6.90;99.90;;;;;;4999282;28;20576;-66
2022/11/30 05:45:39;;;;;;;23.47;16.53;;;7.00;99.90;;;;;;5005300;28;20594;-66
2022/11/30 05:48:05;;;;;;;20.87;16.37;;;7.10;99.90;;;;;;4996098;28;20178;-66
2022/11/30 05:50:31;;;;;;;20.23;15.57;;;7.10;99.90;;;;;;4995816;28;20180;-66
2022/11/30 05:52:59;;;;;;;19.60;15.60;;;7.00;99.90;;;;;;4998002;28;20523;-66
2022/11/30 05:55:25;;;;;;;22.37;17.43;;;6.90;99.90;;;;;;5000700;28;20178;-66
2022/11/30 05:57:51;;;;;;;22.87;15.80;;;6.90;99.90;;;;;;4991699;28;20549;-66
2022/11/30 06:00:18;;;;;;;23.17;17.47;;;6.90;99.90;;;;;;5002036;28;20436;-66
2022/11/30 06:02:44;;;;;;;26.80;18.10;;;7.00;99.90;;;;;;4990694;28;20435;-66
2022/11/30 06:05:09;;;;;;;22.27;17.70;;;7.00;99.90;;;;;;4992873;28;20438;-66
2022/11/30 06:07:35;;;;;;;23.87;17.00;;;7.00;99.90;;;;;;4989980;28;20788;-66
2022/11/30 06:10:00;;;;;;;25.00;18.93;;;6.90;99.90;;;;;;4990753;28;20318;-66
2022/11/30 06:12:26;;;;;;;21.67;17.87;;;7.00;99.90;;;;;;4991848;28;20190;-66
2022/11/30 06:14:52;;;;;;;22.73;16.07;;;7.00;99.90;;;;;;4992310;28;20223;-66
2022/11/30 06:17:17;;;;;;;25.17;18.63;;;7.10;99.90;;;;;;4991381;28;20242;-66
2022/11/30 06:19:43;;;;;;;21.87;18.10;;;7.10;99.90;;;;;;4996263;28;20176;-66
2022/11/30 06:22:08;;;;;;;22.33;17.90;;;7.20;99.90;;;;;;4991573;28;20176;-66
2022/11/30 06:24:34;;;;;;;26.63;17.80;;;7.20;99.90;;;;;;4992374;28;20204;-66
2022/11/30 06:26:59;;;;;;;21.37;17.30;;;7.10;99.90;;;;;;4994437;28;20190;-66
2022/11/30 06:29:25;;;;;;;20.37;17.67;;;7.10;99.90;;;;;;5002444;28;20234;-66
2022/11/30 06:31:50;;;;;;;23.97;16.87;;;7.00;99.90;;;;;;4992837;28;20179;-66
2022/11/30 06:34:16;;;;;;;22.03;17.00;;;7.00;99.90;;;;;;5003586;28;20290;-66
2022/11/30 06:36:41;;;;;;;24.80;17.30;;;7.00;99.90;;;;;;4993186;28;20270;-66
2022/11/30 06:39:10;;;;;;;26.00;18.80;;;7.00;99.90;;;;;;4999472;28;20232;-66
2022/11/30 06:41:35;;;;;;;24.63;18.50;;;7.00;99.90;;;;;;4989524;28;20194;-66
2022/11/30 06:44:01;;;;;;;20.60;18.40;;;7.10;99.90;;;;;;4995086;28;20449;-66
2022/11/30 06:46:26;;;;;;;22.20;16.93;;;7.00;99.90;;;;;;5001863;28;20193;-66
2022/11/30 06:48:52;;;;;;;18.47;15.67;;;7.00;99.90;;;;;;4996929;28;20582;-65
2022/11/30 06:51:18;;;;;;;20.20;16.03;;;7.00;99.90;;;;;;4990944;28;20186;-65
2022/11/30 06:53:45;;;;;;;23.97;17.40;;;7.00;99.90;;;;;;4989485;28;20282;-65
2022/11/30 06:56:11;;;;;;;25.20;18.73;;;7.00;99.90;;;;;;4992183;28;20442;-66
2022/11/30 06:58:40;;;;;;;22.63;18.20;;;7.00;99.90;;;;;;4991405;28;20545;-65
2022/11/30 07:01:12;;;;;;;23.10;16.87;;;7.00;99.90;;;;;;4986863;28;20438;-65
2022/11/30 07:03:39;;;;;;;26.10;18.27;;;7.00;99.90;;;;;;4986970;28;20821;-65
2022/11/30 07:06:12;;;;;;;19.90;16.77;;;7.00;99.90;;;;;;4990461;28;20876;-66
2022/11/30 07:08:37;;;;;;;24.23;17.40;;;7.00;99.90;;;;;;4989080;28;20442;-66
2022/11/30 07:11:04;;;;;;;22.80;15.93;;;7.00;99.90;;;;;;4997566;28;20434;-65
2022/11/30 07:13:29;;;;;;;23.10;16.20;;;7.00;99.90;;;;;;4989814;28;20370;-65
2022/11/30 07:15:55;;;;;;;27.37;19.00;;;7.00;99.90;;;;;;4991630;28;20509;-65
2022/11/30 07:18:21;;;;;;;27.10;18.87;;;7.00;99.90;;;;;;4989711;28;20211;-65
2022/11/30 07:20:47;;;;;;;26.53;18.20;;;7.00;99.90;;;;;;4991618;28;21087;-65
2022/11/30 07:26:08;;;;;;;25.87;19.07;;;7.10;99.90;;;;;;4990337;28;20672;-65
2022/11/30 07:28:35;;;;;;;24.67;17.67;;;7.20;99.90;;;;;;4991480;28;20504;-65
2022/11/30 07:31:02;;;;;;;22.73;17.53;;;7.10;99.90;;;;;;4990022;28;20936;-65
2022/11/30 07:33:29;;;;;;;27.37;18.77;;;7.10;99.90;;;;;;4994267;28;20465;-66
2022/11/30 07:35:55;;;;;;;25.87;19.77;;;7.10;99.90;;;;;;4995713;28;20438;-65
2022/11/30 07:38:20;;;;;;;26.43;17.80;;;7.10;99.90;;;;;;4994417;28;20466;-65
2022/11/30 07:40:46;;;;;;;26.43;19.67;;;7.10;99.90;;;;;;4992922;28;20208;-65
2022/11/30 07:43:11;;;;;;;24.90;18.00;;;7.10;99.90;;;;;;4994658;28;20207;-65
2022/11/30 07:45:37;;;;;;;26.90;18.90;;;7.10;99.90;;;;;;4992270;28;20187;-65
2022/11/30 07:48:02;;;;;;;25.10;18.70;;;7.10;99.90;;;;;;4995036;28;20198;-65
2022/11/30 07:50:28;;;;;;;31.30;19.60;;;7.00;99.90;;;;;;5001677;28;20184;-65
2022/11/30 07:52:53;;;;;;;26.20;18.77;;;7.00;99.90;;;;;;4995018;28;20207;-67
2022/11/30 07:55:22;;;;;;;22.33;17.97;;;7.00;99.90;;;;;;5011852;28;20188;-66
2022/11/30 07:57:47;;;;;;;22.50;17.63;;;7.20;99.90;;;;;;4992211;28;20195;-66
2022/11/30 08:00:14;;;;;;;26.23;17.93;;;7.30;99.90;;;;;;5001581;28;20449;-66
2022/11/30 08:02:39;;;;;;;26.63;18.93;;;7.30;99.90;;;;;;4997645;28;20188;-66
2022/11/30 08:05:05;;;;;;;26.27;18.40;;;7.40;99.90;;;;;;4995814;28;20423;-66
2022/11/30 08:07:31;;;;;;;24.20;15.90;;;7.30;99.90;;;;;;5000918;28;20270;-66
2022/11/30 08:09:56;;;;;;;21.40;17.07;;;7.30;99.90;;;;;;4989945;28;20630;-66
2022/11/30 08:12:22;;;;;;;23.93;18.30;;;7.30;99.90;;;;;;4996084;28;20191;-66
2022/11/30 08:14:47;;;;;;;25.33;18.53;;;7.30;99.90;;;;;;4993616;28;20215;-66
2022/11/30 08:17:13;;;;;;;26.97;19.63;;;7.10;99.90;;;;;;4998055;28;20274;-66
2022/11/30 08:19:38;;;;;;;24.13;19.03;;;7.00;99.90;;;;;;5002202;28;20515;-66
2022/11/30 08:22:04;;;;;;;25.67;19.87;;;7.00;99.90;;;;;;4998143;28;20187;-67
2022/11/30 08:24:29;;;;;;;27.00;19.60;;;7.00;99.90;;;;;;5002732;28;20211;-65
2022/11/30 08:26:55;;;;;;;27.30;18.30;;;7.10;99.90;;;;;;4994675;28;20168;-66
2022/11/30 08:29:20;;;;;;;27.13;19.10;;;7.20;99.90;;;;;;5000158;28;20187;-66
2022/11/30 08:31:46;;;;;;;28.10;19.73;;;7.30;99.90;;;;;;4995038;28;20175;-66
2022/11/30 08:34:12;;;;;;;23.70;16.63;;;7.40;99.90;;;;;;4997882;28;20194;-66
2022/11/30 08:36:39;;;;;;;25.60;18.20;;;7.40;99.90;;;;;;4993730;28;20183;-67
2022/11/30 08:39:07;;;;;;;26.93;17.67;;;7.40;99.90;;;;;;5008686;28;20457;-66
2022/11/30 08:41:35;;;;;;;24.27;17.30;;;7.40;99.90;;;;;;5004600;28;20441;-66
2022/11/30 08:44:00;;;;;;;25.77;17.23;;;7.40;99.90;;;;;;5004252;28;20508;-66
2022/11/30 08:46:26;;;;;;;24.93;18.00;;;7.40;99.90;;;;;;4994103;28;20430;-66
2022/11/30 08:48:52;;;;;;;24.43;17.57;;;7.40;99.90;;;;;;4995939;28;20179;-66
2022/11/30 08:51:19;;;;;;;25.27;17.60;;;7.50;99.90;;;;;;4993786;28;20442;-66
2022/11/30 08:53:46;;;;;;;21.90;15.80;;;7.50;99.90;;;;;;5000817;28;20454;-65
2022/11/30 08:56:15;;;;;;;25.27;18.27;;;7.60;99.90;;;;;;4994261;28;20439;-65
2022/11/30 08:58:41;;;;;;;26.83;17.37;;;7.80;99.90;;;;;;4989449;28;21061;-65
2022/11/30 09:01:12;;;;;;;24.20;18.27;;;7.80;99.90;;;;;;5006132;28;20515;-66
2022/11/30 09:03:38;;;;;;;22.43;16.83;;;7.80;99.90;;;;;;4996298;28;20605;-66
2022/11/30 09:06:08;;;;;;;21.77;16.67;;;7.80;99.90;;;;;;5000851;28;20434;-66
2022/11/30 09:08:34;;;;;;;27.50;18.17;;;7.90;99.90;;;;;;4991365;28;20465;-66
2022/11/30 09:11:12;;;;;;;26.67;18.00;;;8.10;99.90;;;;;;5004230;28;20818;-66
2022/11/30 09:13:39;;;;;;;22.80;17.60;;;8.20;99.90;;;;;;4989173;28;20489;-67
2022/11/30 09:16:05;;;;;;;23.87;18.00;;;8.20;99.90;;;;;;4987267;28;21192;-66
2022/11/30 09:18:31;;;;;;;23.47;17.60;;;8.20;99.90;;;;;;4999776;28;20470;-66
2022/11/30 09:21:05;;;;;;;22.13;16.00;;;8.20;99.90;;;;;;4999049;28;20431;-66
2022/11/30 09:23:31;;;;;;;21.20;15.07;;;8.20;99.90;;;;;;4995499;28;20262;-66
2022/11/30 09:25:59;;;;;;;22.90;14.73;;;8.30;99.90;;;;;;5003541;28;20935;-65
2022/11/30 09:28:25;;;;;;;23.20;15.43;;;8.30;99.90;;;;;;4993122;28;20190;-66
2022/11/30 09:30:52;;;;;;;19.03;14.00;;;8.40;99.90;;;;;;4992465;28;20443;-66
2022/11/30 09:33:18;;;;;;;20.70;14.70;;;8.60;99.90;;;;;;5007141;28;20978;-65
2022/11/30 09:35:52;;;;;;;19.30;14.93;;;8.80;99.90;;;;;;4990809;28;20534;-66
2022/11/30 09:38:18;;;;;;;22.90;17.97;;;8.90;99.90;;;;;;4989410;28;20835;-66
2022/11/30 09:40:48;;;;;;;23.50;17.90;;;8.80;99.90;;;;;;4998205;28;20445;-66
2022/11/30 09:43:29;;;;;;;26.77;17.47;;;8.80;99.90;;;;;;4994744;28;20203;-66
2022/11/30 09:45:57;;;;;;;30.00;18.30;;;8.60;99.90;;;;;;4989643;28;20483;-66
2022/11/30 09:48:53;;;;;;;27.43;20.67;;;8.60;99.90;;;;;;4992402;28;20966;-66
2022/11/30 09:51:24;;;;;;;26.43;19.57;;;8.50;99.90;;;;;;4989052;28;20455;-65
2022/11/30 09:54:01;;;;;;;26.10;18.07;;;8.50;99.90;;;;;;5000700;28;20458;-65
2022/11/30 09:56:29;;;;;;;25.27;17.93;;;8.60;99.90;;;;;;4990459;28;20473;-66
2022/11/30 09:59:12;;;;;;;22.60;17.33;;;8.70;99.90;;;;;;5000118;28;20470;-65
2022/11/30 10:01:38;;;;;;;22.37;16.00;;;8.70;99.90;;;;;;4990491;28;20433;-65
2022/11/30 10:04:04;;;;;;;21.03;16.40;;;8.70;99.90;;;;;;4999888;28;20447;-65
2022/11/30 10:06:42;;;;;;;25.00;15.73;;;8.80;99.90;;;;;;4991570;28;20195;-66
2022/11/30 10:09:52;;;;;;;21.13;15.70;;;8.90;99.90;;;;;;4989452;28;20191;-67
2022/11/30 10:12:43;;;;;;;23.70;14.47;;;9.00;99.90;;;;;;4978446;28;21006;-66
2022/11/30 10:15:16;;;;;;;24.80;18.03;;;9.00;99.90;;;;;;4990800;28;20448;-66
2022/11/30 10:17:53;;;;;;;21.00;17.00;;;9.10;99.90;;;;;;4997714;28;20462;-66
2022/11/30 10:20:19;;;;;;;19.50;16.07;;;9.00;99.90;;;;;;4996406;28;20473;-66
2022/11/30 10:23:19;;;;;;;16.93;12.47;;;9.00;99.90;;;;;;4997004;28;20473;-67
2022/11/30 10:25:56;;;;;;;13.47;11.90;;;9.20;99.90;;;;;;4991494;28;20212;-66
2022/11/30 10:28:24;;;;;;;18.83;12.03;;;9.40;99.90;;;;;;4998829;28;20504;-66
2022/11/30 10:30:50;;;;;;;18.33;14.00;;;9.50;99.90;;;;;;4991057;28;20642;-66
2022/11/30 10:33:18;;;;;;;20.83;15.00;;;9.20;99.90;;;;;;4990847;28;21046;-66
2022/11/30 10:36:02;;;;;;;17.60;13.93;;;9.10;99.90;;;;;;5001265;28;20183;-66
2022/11/30 10:38:39;;;;;;;20.27;12.63;;;9.10;99.90;;;;;;5001401;28;21025;-66
2022/11/30 10:41:20;;;;;;;20.40;14.83;;;8.90;99.90;;;;;;5001119;28;20540;-66
2022/11/30 10:44:00;;;;;;;18.47;14.40;;;8.80;99.90;;;;;;5007824;28;20433;-66
2022/11/30 10:46:58;;;;;;;16.67;14.07;;;8.70;99.90;;;;;;5000221;28;20439;-66
2022/11/30 10:49:26;;;;;;;18.30;13.97;;;8.50;99.90;;;;;;5003587;28;20799;-66
2022/11/30 10:51:58;;;;;;;20.73;15.90;;;8.40;99.90;;;;;;4993581;28;20431;-66
2022/11/30 10:54:23;;;;;;;18.67;14.30;;;8.40;99.90;;;;;;4998459;28;21033;-67
2022/11/30 10:56:49;;;;;;;19.90;14.83;;;8.20;99.90;;;;;;5005865;28;20434;-67
2022/11/30 10:59:26;;;;;;;19.90;15.20;;;8.10;99.90;;;;;;5000457;28;20234;-66
2022/11/30 11:01:52;;;;;;;17.90;14.00;;;8.10;99.90;;;;;;5000967;28;20205;-66
2022/11/30 11:04:23;;;;;;;20.37;14.60;;;8.00;99.90;;;;;;5000956;28;20437;-66
2022/11/30 11:06:54;;;;;;;19.47;14.80;;;8.10;99.90;;;;;;4993273;28;20171;-66
2022/11/30 11:09:29;;;;;;;18.97;14.93;;;8.10;99.90;;;;;;5000709;28;20427;-66
2022/11/30 11:12:01;;;;;;;22.87;16.40;;;8.00;99.90;;;;;;4990848;28;20434;-65
2022/11/30 11:14:27;;;;;;;19.90;15.30;;;8.00;99.90;;;;;;4992630;28;20482;-65
2022/11/30 11:16:54;;;;;;;15.10;11.57;;;8.00;99.90;;;;;;4998121;28;20940;-67
2022/11/30 11:19:35;;;;;;;14.30;10.77;;;8.00;99.90;;;;;;4989214;28;20470;-66
2022/11/30 11:22:05;;;;;;;15.00;12.00;;;8.00;99.90;;;;;;4991039;28;20437;-66
2022/11/30 11:24:31;;;;;;;15.93;11.30;;;8.00;99.90;;;;;;4987814;28;20454;-67
2022/11/30 11:26:57;;;;;;;17.90;13.30;;;7.90;99.90;;;;;;4989466;28;20529;-66
2022/11/30 11:29:32;;;;;;;18.17;12.60;;;7.90;99.90;;;;;;4995973;28;20517;-66
2022/11/30 11:32:17;;;;;;;19.63;13.67;;;7.90;99.90;;;;;;5001953;28;20189;-66
2022/11/30 11:34:43;;;;;;;17.50;15.10;;;7.90;99.90;;;;;;4988654;28;20474;-65
2022/11/30 11:37:19;;;;;;;16.23;13.37;;;7.90;99.90;;;;;;5005749;28;20769;-65
2022/11/30 11:40:15;;;;;;;17.13;13.57;;;7.90;99.90;;;;;;4994698;28;20894;-65
2022/11/30 11:42:48;;;;;;;20.53;13.17;;;8.10;99.90;;;;;;4996721;28;20442;-65
2022/11/30 11:45:48;;;;;;;19.00;13.37;;;8.20;99.90;;;;;;4988024;28;20815;-67
2022/11/30 11:48:32;;;;;;;22.30;14.00;;;8.40;99.90;;;;;;4989204;28;20447;-66
2022/11/30 11:51:02;;;;;;;18.57;14.00;;;8.50;99.90;;;;;;4990593;28;20485;-65
2022/11/30 11:53:50;;;;;;;30.20;16.23;;;8.40;99.90;;;;;;4990567;28;20823;-66
2022/11/30 11:56:27;;;;;;;17.40;13.27;;;8.40;99.90;;;;;;4986116;28;20430;-65
2022/11/30 11:59:34;;;;;;;15.27;12.40;;;8.50;99.90;;;;;;4990462;28;20864;-66
2022/11/30 12:02:20;;;;;;;21.87;13.03;;;8.50;99.90;;;;;;4985338;28;20565;-67
2022/11/30 12:05:01;;;;;;;19.40;15.07;;;8.70;99.90;;;;;;4989399;28;20461;-66
2022/11/30 12:07:42;;;;;;;19.10;13.17;;;8.70;99.90;;;;;;4990513;28;20497;-65
2022/11/30 12:10:26;;;;;;;16.03;12.27;;;8.80;99.90;;;;;;4990978;28;21113;-65
2022/11/30 12:12:54;;;;;;;18.40;12.87;;;8.70;99.90;;;;;;4989999;28;20608;-65
2022/11/30 12:15:31;;;;;;;15.37;11.30;;;8.70;99.90;;;;;;4990877;28;20518;-65
2022/11/30 12:18:16;;;;;;;17.77;11.87;;;8.70;99.90;;;;;;4992218;28;20462;-65
2022/11/30 12:20:56;;;;;;;14.90;11.43;;;8.70;99.90;;;;;;4992248;28;21009;-65
2022/11/30 12:23:52;;;;;;;19.53;13.37;;;8.60;99.90;;;;;;4991995;28;20497;-65
2022/11/30 12:26:39;;;;;;;18.53;12.60;;;8.60;99.90;;;;;;4994848;28;20472;-65
2022/11/30 12:29:20;;;;;;;20.50;15.50;;;8.70;99.90;;;;;;4994435;28;20525;-65
2022/11/30 12:32:01;;;;;;;15.37;12.10;;;8.50;99.90;;;;;;5002559;28;20861;-65
2022/11/30 12:34:41;;;;;;;20.80;12.07;;;8.50;99.90;;;;;;5003281;28;20461;-66
2022/11/30 12:37:35;;;;;;;14.97;11.33;;;8.40;99.90;;;;;;4996716;28;20438;-65
2022/11/30 12:40:28;;;;;;;17.63;12.20;;;8.40;99.90;;;;;;4994810;28;20442;-64
2022/11/30 12:43:00;;;;;;;16.03;12.00;;;8.30;99.90;;;;;;5001449;28;20811;-66
2022/11/30 12:45:32;;;;;;;15.87;11.00;;;8.40;99.90;;;;;;4995867;28;20439;-66
2022/11/30 12:48:00;;;;;;;17.13;12.93;;;8.40;99.90;;;;;;4992579;28;20445;-66
2022/11/30 12:50:58;;;;;;;18.70;12.70;;;8.30;99.90;;;;;;4998739;28;20847;-66